EGNS/IOM METAR and TAF weather

Enter ICAO airport designator
Station Type Date Time Source
EGNS METAR 2021/08/04 19:20 UTC NOAA

EGNS 041920Z 19011KT 9999 FEW014 16/13 Q1009 NOSIG


Station Type Date Time Source
EGNS Decoded METAR 2021/08/04 19:20 UTC NOAA

Isle Of Man / Ronaldsway Airport, United Kingdom (EGNS) 54-05N 004-38W 0M
Aug 04, 2021 - 03:20 PM EDT / 2021.08.04 1920 UTC
Wind: from the S (190 degrees) at 13 MPH (11 KT):0
Visibility: greater than 7 mile(s):0
Sky conditions: mostly clear
Temperature: 60 F (16 C)
Dew Point: 55 F (13 C)
Relative Humidity: 82%
Pressure (altimeter): 29.80 in. Hg (1009 hPa)
ob: EGNS 041920Z 19011KT 9999 FEW014 16/13 Q1009 NOSIG
cycle: 19

Station Type Date Time Source
EGNS TAF 2019/01/16 05:00 UTC NOAA

TAF EGNS 160500 Z 1606/1615 28020KT 9999 FEW010 BKN025
TEMPO 1606/1609 6000 RA BKN010 PROB30
TEMPO 1613/1615 7000 -SHRA

Example: see airport list